createdAt,value
2022-08-18T00:00:50.090Z,49.66
2022-08-18T00:04:57.260Z,49.78
2022-08-18T00:09:02.785Z,49.90
2022-08-18T00:13:06.094Z,49.95
2022-08-18T00:17:09.715Z,49.47
2022-08-18T00:21:14.370Z,48.90
2022-08-18T00:25:19.663Z,48.72
2022-08-18T00:29:22.924Z,48.70
2022-08-18T00:33:26.032Z,48.12
2022-08-18T00:37:30.516Z,48.42
2022-08-18T00:41:34.083Z,48.21
2022-08-18T00:45:39.643Z,48.20
2022-08-18T00:49:45.853Z,47.89
2022-08-18T00:53:57.033Z,47.85
2022-08-18T00:58:04.742Z,48.54
2022-08-18T01:02:12.449Z,49.12
2022-08-18T01:06:19.553Z,49.35
2022-08-18T01:10:25.111Z,49.14
2022-08-18T01:14:28.232Z,49.78
2022-08-18T01:18:48.541Z,49.72
2022-08-18T01:23:01.614Z,49.95
2022-08-18T01:27:05.272Z,50.13
2022-08-18T01:31:09.162Z,50.18
2022-08-18T01:35:14.478Z,50.49
2022-08-18T01:41:24.657Z,50.06
2022-08-18T01:43:43.183Z,50.64
2022-08-18T01:47:47.668Z,50.48
2022-08-18T01:52:01.435Z,50.83
2022-08-18T01:56:07.073Z,50.69
2022-08-18T02:00:12.522Z,51.31
2022-08-18T02:04:34.558Z,51.28
2022-08-18T02:08:42.116Z,51.00
2022-08-18T02:12:49.760Z,51.30
2022-08-18T02:16:53.044Z,51.26
2022-08-18T02:21:10.435Z,51.76
2022-08-18T02:25:15.451Z,50.98
2022-08-18T02:29:20.505Z,51.13
2022-08-18T02:33:24.035Z,50.99
2022-08-18T02:37:27.834Z,51.49
2022-08-18T02:41:31.620Z,52.33
2022-08-18T02:45:36.474Z,52.83
2022-08-18T02:49:41.488Z,52.67
2022-08-18T02:53:47.838Z,52.68
2022-08-18T02:57:51.716Z,53.05
2022-08-18T03:02:00.842Z,52.82
2022-08-18T03:06:12.988Z,53.16
2022-08-18T03:10:33.148Z,53.37
2022-08-18T03:14:48.162Z,53.05
2022-08-18T03:19:10.142Z,53.51
2022-08-18T03:27:48.280Z,53.57
2022-08-18T03:32:28.803Z,53.68
2022-08-18T03:36:48.818Z,54.56
2022-08-18T03:41:04.611Z,54.59
2022-08-18T03:45:23.229Z,54.87
2022-08-18T03:49:27.443Z,54.80
2022-08-18T03:53:33.454Z,54.81
2022-08-18T03:57:39.249Z,55.48
2022-08-18T04:01:45.376Z,55.60
2022-08-18T04:05:51.483Z,55.61
2022-08-18T04:09:56.740Z,55.40
2022-08-18T04:14:00.438Z,55.38
2022-08-18T04:18:08.930Z,55.61
2022-08-18T04:22:18.128Z,55.40
2022-08-18T04:26:29.411Z,55.49
2022-08-18T04:30:42.846Z,55.67
2022-08-18T04:35:14.348Z,55.80
2022-08-18T04:39:20.105Z,55.86
2022-08-18T04:43:24.903Z,55.81
2022-08-18T04:47:28.513Z,55.91
2022-08-18T04:52:26.622Z,55.66
2022-08-18T04:56:00.641Z,56.05
2022-08-18T05:00:07.980Z,56.56
2022-08-18T05:04:15.806Z,56.26
2022-08-18T05:08:19.479Z,56.43
2022-08-18T05:12:26.791Z,56.34
2022-08-18T05:16:48.246Z,56.30
2022-08-18T05:20:53.889Z,56.67
2022-08-18T05:25:01.734Z,56.70
2022-08-18T05:29:18.788Z,57.00
2022-08-18T05:33:24.984Z,57.25
2022-08-18T05:37:37.445Z,56.23
2022-08-18T05:41:44.766Z,55.83
2022-08-18T05:45:54.902Z,55.38
2022-08-18T05:50:10.784Z,55.10
2022-08-18T05:54:33.943Z,54.30
2022-08-18T05:58:41.797Z,54.12
2022-08-18T06:02:51.406Z,54.11
2022-08-18T06:06:59.249Z,53.98
2022-08-18T06:11:06.916Z,53.57
2022-08-18T06:15:33.842Z,53.81
2022-08-18T06:19:46.822Z,53.38
2022-08-18T06:24:02.874Z,52.30
2022-08-18T06:28:11.079Z,52.67
2022-08-18T06:32:28.511Z,52.25
2022-08-18T06:36:44.302Z,51.40
2022-08-18T06:40:51.401Z,51.12
2022-08-18T06:45:00.306Z,50.84
2022-08-18T06:49:06.847Z,50.46
2022-08-18T06:53:26.895Z,49.99
2022-08-18T06:57:35.905Z,49.97
2022-08-18T07:01:45.817Z,49.31
2022-08-18T07:06:02.179Z,49.29
2022-08-18T07:10:16.035Z,48.99
2022-08-18T07:14:24.453Z,48.13
2022-08-18T07:18:29.976Z,47.53
2022-08-18T07:22:39.206Z,47.75
2022-08-18T07:27:01.768Z,47.70
2022-08-18T07:31:28.877Z,47.42
2022-08-18T07:35:37.625Z,47.33
2022-08-18T07:39:47.433Z,46.56
2022-08-18T07:44:12.893Z,46.67
2022-08-18T07:48:37.685Z,45.90
2022-08-18T07:52:50.549Z,45.76
2022-08-18T07:57:00.977Z,45.39
2022-08-18T08:01:12.957Z,45.00
2022-08-18T08:05:26.009Z,44.69
2022-08-18T08:09:37.723Z,44.36
2022-08-18T08:13:56.354Z,43.92
2022-08-18T08:18:10.626Z,43.75
2022-08-18T08:22:21.097Z,42.93
2022-08-18T08:26:52.114Z,42.36
2022-08-18T08:31:33.422Z,42.33
2022-08-18T08:35:48.889Z,42.57
2022-08-18T08:40:08.791Z,41.94
2022-08-18T08:44:19.209Z,42.83
2022-08-18T08:48:29.703Z,41.90
2022-08-18T08:52:40.747Z,41.95
2022-08-18T08:56:50.833Z,41.68
2022-08-18T09:00:55.309Z,41.44
2022-08-18T09:05:09.874Z,41.13
2022-08-18T09:09:32.029Z,40.63
2022-08-18T09:14:05.148Z,40.88
2022-08-18T09:18:31.314Z,41.01
2022-08-18T09:22:46.796Z,40.89
2022-08-18T09:26:54.065Z,40.35
2022-08-18T09:31:20.086Z,39.49
2022-08-18T09:35:45.055Z,40.08
2022-08-18T09:40:33.365Z,40.33
2022-08-18T09:45:07.327Z,39.90
2022-08-18T09:49:55.563Z,39.90
2022-08-18T09:54:25.207Z,38.95
2022-08-18T09:59:02.796Z,39.50
2022-08-18T10:03:26.481Z,39.83
2022-08-18T10:07:43.540Z,38.89
2022-08-18T10:12:19.140Z,38.36
2022-08-18T10:17:04.959Z,38.26
2022-08-18T10:21:22.835Z,37.88
2022-08-18T10:25:39.261Z,37.75
2022-08-18T10:29:52.219Z,37.35
2022-08-18T10:34:24.663Z,38.27
2022-08-18T10:38:48.956Z,37.09
2022-08-18T10:42:59.205Z,37.52
2022-08-18T10:47:11.860Z,36.95
2022-08-18T10:51:29.468Z,36.76
2022-08-18T10:56:01.905Z,36.96
2022-08-18T11:00:12.413Z,36.60
2022-08-18T11:04:34.790Z,36.12
2022-08-18T11:08:47.112Z,35.08
2022-08-18T11:13:09.726Z,35.72
2022-08-18T11:17:24.260Z,35.54
2022-08-18T11:21:42.102Z,35.35
2022-08-18T11:25:46.162Z,35.85
2022-08-18T11:29:52.794Z,35.09
2022-08-18T11:33:56.000Z,35.05
2022-08-18T11:38:03.715Z,34.60
2022-08-18T11:42:15.646Z,35.14
2022-08-18T11:46:31.978Z,34.73
2022-08-18T11:50:40.630Z,34.66
2022-08-18T11:55:24.648Z,34.61
2022-08-18T11:59:52.581Z,33.87
2022-08-18T12:03:57.656Z,33.87
2022-08-18T12:08:01.832Z,33.85
2022-08-18T12:12:18.744Z,33.81
2022-08-18T12:16:34.666Z,33.77
2022-08-18T12:20:39.374Z,33.76
2022-08-18T12:24:42.497Z,33.10
2022-08-18T12:28:47.987Z,33.23
2022-08-18T12:33:12.787Z,32.56
2022-08-18T12:37:57.628Z,32.82
2022-08-18T12:41:45.430Z,32.02
2022-08-18T12:45:51.540Z,31.97
2022-08-18T12:49:54.941Z,32.40
2022-08-18T12:54:01.789Z,31.66
2022-08-18T12:58:08.209Z,31.75
2022-08-18T13:02:12.960Z,32.17
2022-08-18T13:06:22.508Z,31.18
2022-08-18T13:10:42.869Z,31.35
2022-08-18T13:15:03.336Z,30.44
2022-08-18T13:19:15.851Z,31.10
2022-08-18T13:23:24.472Z,31.12
2022-08-18T13:27:32.743Z,30.85
2022-08-18T13:31:39.649Z,30.59
2022-08-18T13:35:45.047Z,31.14
2022-08-18T13:39:50.827Z,30.67
2022-08-18T13:43:59.068Z,30.61
2022-08-18T13:48:02.839Z,30.48
2022-08-18T13:52:33.151Z,30.53
2022-08-18T13:56:41.770Z,29.85
2022-08-18T14:05:36.937Z,29.98
2022-08-18T14:09:57.349Z,30.42
2022-08-18T14:14:01.889Z,29.96
2022-08-18T14:18:08.719Z,30.19
2022-08-18T14:22:42.569Z,29.70
2022-08-18T14:26:55.548Z,29.94
2022-08-18T14:31:01.029Z,29.99
2022-08-18T14:35:33.078Z,29.85
2022-08-18T14:39:29.745Z,30.59
2022-08-18T14:44:10.933Z,30.19
2022-08-18T14:47:59.278Z,30.34
2022-08-18T14:52:03.341Z,29.63
2022-08-18T14:56:13.898Z,30.42
2022-08-18T15:00:22.710Z,29.90
2022-08-18T15:04:27.535Z,30.22
2022-08-18T15:08:31.173Z,30.40
2022-08-18T15:12:35.392Z,31.13
2022-08-18T15:16:39.956Z,31.14
2022-08-18T15:21:02.599Z,30.86
2022-08-18T15:25:31.076Z,31.72
2022-08-18T15:29:35.677Z,31.54
2022-08-18T15:33:40.230Z,31.69
2022-08-18T15:37:47.544Z,31.67
2022-08-18T15:41:54.719Z,31.86
2022-08-18T15:45:58.487Z,31.85
2022-08-18T15:50:21.861Z,32.28
2022-08-18T15:54:26.419Z,32.33
2022-08-18T15:58:29.544Z,31.63
2022-08-18T16:02:32.790Z,32.32
2022-08-18T16:06:45.173Z,32.41
2022-08-18T16:10:49.193Z,32.03
2022-08-18T16:14:53.250Z,32.42
2022-08-18T16:18:58.411Z,32.56
2022-08-18T16:23:03.317Z,31.96
2022-08-18T16:27:07.015Z,32.24
2022-08-18T16:31:10.776Z,32.17
2022-08-18T16:35:14.230Z,32.26
2022-08-18T16:39:18.914Z,32.42
2022-08-18T16:43:23.403Z,32.40
2022-08-18T16:47:27.201Z,32.71
2022-08-18T16:51:30.643Z,33.06
2022-08-18T16:55:35.250Z,33.65
2022-08-18T16:59:56.346Z,33.39
2022-08-18T17:04:13.517Z,33.91
2022-08-18T17:08:18.168Z,34.75
2022-08-18T17:12:22.852Z,34.58
2022-08-18T17:16:28.476Z,34.84
2022-08-18T17:20:34.536Z,35.26
2022-08-18T17:24:38.184Z,35.97
2022-08-18T17:29:02.912Z,36.27
2022-08-18T17:33:11.971Z,37.04
2022-08-18T17:37:18.519Z,37.24
2022-08-18T17:41:23.698Z,37.89
2022-08-18T17:45:31.946Z,38.05
2022-08-18T17:50:26.246Z,38.30
2022-08-18T17:54:30.569Z,38.95
2022-08-18T17:58:40.431Z,38.97
2022-08-18T18:02:46.770Z,39.10
2022-08-18T18:06:51.958Z,39.02
2022-08-18T18:11:11.234Z,39.76
2022-08-18T18:15:15.416Z,40.14
2022-08-18T18:19:26.119Z,40.02
2022-08-18T18:23:32.460Z,39.93
2022-08-18T18:27:41.806Z,40.66
2022-08-18T18:31:47.399Z,41.06
2022-08-18T18:35:57.021Z,41.39
2022-08-18T18:40:03.663Z,41.36
2022-08-18T18:44:10.196Z,41.45
2022-08-18T18:48:48.083Z,41.31
2022-08-18T18:52:59.821Z,41.80
2022-08-18T18:57:03.576Z,41.75
2022-08-18T19:01:13.080Z,42.13
2022-08-18T19:05:27.874Z,42.63
2022-08-18T19:09:39.658Z,42.77
2022-08-18T19:13:47.263Z,42.89
2022-08-18T19:18:03.150Z,42.97
2022-08-18T19:22:14.938Z,43.05
2022-08-18T19:26:27.233Z,43.27
2022-08-18T19:30:31.586Z,43.01
2022-08-18T19:34:51.151Z,43.18
2022-08-18T19:39:03.172Z,43.46
2022-08-18T19:43:12.844Z,44.43
2022-08-18T19:47:20.191Z,45.46
2022-08-18T19:51:35.063Z,45.58
2022-08-18T19:55:53.962Z,46.46
2022-08-18T20:00:11.798Z,46.59
2022-08-18T20:04:34.485Z,46.51
2022-08-18T20:09:02.041Z,46.95
2022-08-18T20:13:32.944Z,47.08
2022-08-18T20:18:02.361Z,47.10
2022-08-18T20:22:10.457Z,47.00
2022-08-18T20:26:43.084Z,46.87
2022-08-18T20:31:01.791Z,47.17
2022-08-18T20:35:18.604Z,47.56
2022-08-18T20:39:54.412Z,47.31
2022-08-18T20:44:02.709Z,47.43
2022-08-18T20:48:29.188Z,47.42
2022-08-18T20:52:43.244Z,48.01
2022-08-18T20:56:50.665Z,47.80
2022-08-18T21:00:58.690Z,48.51
2022-08-18T21:05:02.143Z,48.35
2022-08-18T21:09:06.803Z,48.16
2022-08-18T21:13:09.967Z,47.65
2022-08-18T21:17:15.428Z,48.00
2022-08-18T21:21:28.382Z,48.24
2022-08-18T21:25:33.800Z,48.79
2022-08-18T21:29:46.847Z,49.78
2022-08-18T21:33:53.181Z,50.12
2022-08-18T21:38:01.415Z,49.72
2022-08-18T21:42:08.454Z,49.69
2022-08-18T21:46:13.419Z,49.82
2022-08-18T21:50:19.377Z,49.21
2022-08-18T21:54:24.968Z,49.71
2022-08-18T21:58:38.935Z,50.07
2022-08-18T22:02:42.733Z,49.82
2022-08-18T22:06:50.460Z,50.63
2022-08-18T22:12:00.623Z,50.44
2022-08-18T22:16:28.892Z,50.66
2022-08-18T22:20:49.172Z,50.82
2022-08-18T22:24:57.353Z,51.16
2022-08-18T22:29:04.729Z,50.64
2022-08-18T22:33:09.306Z,50.08
2022-08-18T22:37:15.660Z,50.70
2022-08-18T22:41:23.309Z,50.85
2022-08-18T22:45:26.684Z,50.29
2022-08-18T22:49:35.889Z,48.94
2022-08-18T22:53:39.200Z,48.60
2022-08-18T22:57:46.242Z,48.30
2022-08-18T23:01:51.885Z,47.90
2022-08-18T23:05:56.357Z,47.86
2022-08-18T23:10:00.059Z,48.52
2022-08-18T23:14:03.424Z,48.35
2022-08-18T23:18:07.682Z,48.38
2022-08-18T23:22:12.471Z,48.51
2022-08-18T23:26:15.577Z,49.32
2022-08-18T23:30:18.683Z,50.06
2022-08-18T23:34:24.443Z,50.29
2022-08-18T23:38:31.587Z,49.96
2022-08-18T23:42:34.981Z,50.40
2022-08-18T23:46:38.106Z,51.06
2022-08-18T23:50:43.372Z,51.14
2022-08-18T23:54:48.397Z,51.19
2022-08-18T23:58:54.006Z,51.15
